map of YEG home
YEG - Airport
Location
City:  Edmonton, Alberta, Canada
Near (Alt.):Nisku
Name:Edmonton International Airport
ICAO:CYEG
IATA:YEG

Details
Type:Airport (Airfield)
Use:Public/Civil, International (customs port of entry)
Latitude:5318'36"N (53.310000)
Longitude:11334'46"W (-113.579443)
Elevation:2373 ft (723 m)
Variation:14.26E (WMM2015 magnetic declination)
-0.16 annual change
Runways:2
Longest:10995 ft (3351 m), paved

Time
Time Zone:UTC-7 (DST-6)
Local Time:

Weather
METAR:CYEG 200900Z 18008KT 15SM FEW250 11/08 A3005 RMK CI1 CI TR SLP178 DENSITY ALT 2400FT
TAF:CYEG 200838Z 2009/2106 16006KT P6SM FEW250
RMK NXT FCST BY 201200Z

Related Locations
Nearby:
Farthest:YWKS: 10673 mi / 17177 km
Wilkins Runway (Casey), Upper Peterson Glacier, AQ

Find:

   beyond  
but within

Other Information
Maps:
NOTAMs:
Links:
Sources:

  
  • flag of Canada
  • flag of Alberta
  

Airport Diagram

Airport diagram for YEG

Airport diagram PDF

Sectional Chart

Flight Planning
at skyvector.com

Satellite Image

Google Maps Satellite view

 

Copyright © 2004-2018 Karl L. Swartz. All rights reserved.
The Great Circle Mapper name and logo are trademarks of the Great Circle Mapper.
All other trademarks mentioned herein belong to their respective owners.
Please see credits for attibutions and further copyright information.

  Follow gcmap on Facebook Follow gcmap on Twitter Follow gcmap on Google+ GCmap on LinkedIn

hCard Microformat

Geo Microformat